23. Mai 2022

Uhrzeit Code Wetter Temp. Sichtweite Wolken Wind METAR/SPECI
10:30
V
22 °C 10 km+ - Var   Var 1 kt METAR LESU 230830Z VRB01KT CAVOK 22/02 Q1009
10:00
V
19 °C 10 km+ - Var   Var 2 kt METAR LESU 230800Z VRB02KT 9999 FEW093 19/04 Q1009

22. Mai 2022

Uhrzeit Code Wetter Temp. Sichtweite Wolken Wind METAR/SPECI
19:30
V
31 °C 10 km+ - 270°   270° 10 kt METAR LESU 221730Z 27010KT 230V300 CAVOK 31/03 Q1012
19:00
V
32 °C 10 km+ - 240°   240° 11 kt METAR LESU 221700Z 24011KT 210V270 CAVOK 32/01 Q1012
18:30
V
32 °C 10 km+ - 190°   190° 13 kt METAR LESU 221630Z 19013KT 160V230 CAVOK 32/01 Q1012
18:00
V
33 °C 10 km+ - 240°   240° 9 kt METAR LESU 221600Z 24009KT 190V270 CAVOK 33/01 Q1012
17:30
V
34 °C 10 km+ - 210°   210° 7 kt METAR LESU 221530Z 21007KT 140V260 CAVOK 34/01 Q1012
17:00
V
33 °C 10 km+ - 240°   240° 12 kt METAR LESU 221500Z 24012KT 210V280 CAVOK 33/00 Q1012
16:30
V
33 °C 10 km+ - 250°   250° 12 kt METAR LESU 221430Z 25012KT 210V290 CAVOK 33/02 Q1013
16:00
V
32 °C 10 km+ - 200°   200° 11 kt METAR LESU 221400Z 20011KT 180V240 CAVOK 32/02 Q1013
15:30
V
35 °C 10 km+ - 200°   200° 8 kt METAR LESU 221330Z 20008KT 170V270 CAVOK 35/03 Q1013
15:00
V
34 °C 10 km+ - 180°   180° 11 kt METAR LESU 221300Z 18011KT 140V210 CAVOK 34/01 Q1013
14:30
V
34 °C 10 km+ - 180°   180° 11 kt METAR LESU 221230Z 18011KT 140V220 CAVOK 34/01 Q1014
14:00
V
34 °C 10 km+ - 190°   190° 12 kt METAR LESU 221200Z 19012KT 160V230 CAVOK 34/02 Q1014
13:30
V
33 °C 10 km+ - 180°   180° 12 kt METAR LESU 221130Z 18012KT 150V210 CAVOK 33/02 Q1015
13:00
V
32 °C 10 km+ - 180°   180° 5 kt METAR LESU 221100Z 18005KT 080V230 CAVOK 32/04 Q1015
12:30
V
30 °C 10 km+ - Var   Var 2 kt METAR LESU 221030Z VRB02KT CAVOK 30/06 Q1016
12:00
V
28 °C 10 km+ - 170°   170° 3 kt METAR LESU 221000Z 17003KT 120V230 CAVOK 28/07 Q1016
11:30
V
26 °C 10 km+ - Var   Var 2 kt METAR LESU 220930Z VRB02KT CAVOK 26/08 Q1016
11:00
V
24 °C 10 km+ - Var   Var 2 kt METAR LESU 220900Z VRB02KT CAVOK 24/08 Q1017
10:30
V
23 °C 10 km+ - Var   Var 3 kt METAR LESU 220830Z VRB03KT CAVOK 23/07 Q1018
10:00
V
21 °C 10 km+ - 080°   080° 4 kt METAR LESU 220800Z 08004KT 040V140 CAVOK 21/06 Q1018

21. Mai 2022

Uhrzeit Code Wetter Temp. Sichtweite Wolken Wind METAR/SPECI
17:30
V
33 °C 10 km+ - 200°   200° 11 kt METAR LESU 211530Z 20011KT 170V230 9999 FEW090CB 33/03 Q1020
17:00
V
34 °C 10 km+ - 200°   200° 11 kt METAR LESU 211500Z 20011KT 170V250 9999 FEW090TCU 34/04 Q1020
16:30
V
34 °C 10 km+ - 190°   190° 11 kt METAR LESU 211430Z 19011KT 160V220 9999 FEW090TCU 34/04 Q1021
16:00
V
34 °C 10 km+ - 200°   200° 10 kt METAR LESU 211400Z 20010KT 170V280 CAVOK 34/03 Q1021
15:30
V
34 °C 10 km+ - 210°   210° 10 kt METAR LESU 211330Z 21010KT 180V250 CAVOK 34/02 Q1021
15:00
V
34 °C 10 km+ - 200°   200° 10 kt METAR LESU 211300Z 20010KT 140V300 CAVOK 34/02 Q1022
14:30
V
33 °C 10 km+ - 190°   190° 13 kt METAR LESU 211230Z 19013KT 140V230 CAVOK 33/02 Q1022
14:00
V
32 °C 10 km+ - 190°   190° 12 kt METAR LESU 211200Z 19012KT 160V230 CAVOK 32/01 Q1022
13:30
V
33 °C 10 km+ - 210°   210° 9 kt METAR LESU 211130Z 21009KT 180V260 CAVOK 33/04 Q1023
13:00
V
30 °C 10 km+ - 200°   200° 4 kt METAR LESU 211100Z 20004KT 140V270 CAVOK 30/05 Q1023
12:30
V
28 °C 10 km+ - Var   Var 2 kt METAR LESU 211030Z VRB02KT CAVOK 28/06 Q1024
12:00
V
26 °C 10 km+ - Var   Var 2 kt METAR LESU 211000Z VRB02KT CAVOK 26/07 Q1024
11:30
V
25 °C 10 km+ - Var   Var 1 kt METAR LESU 210930Z VRB01KT CAVOK 25/08 Q1025
11:00
V
23 °C 10 km+ - 120°   120° 3 kt METAR LESU 210900Z 12003KT 030V180 CAVOK 23/06 Q1025
Ältere Daten

Laden Sie unsere App herunter

Einfacher Zugriff auf das gesamte Flugwetter auf Ihrem Mobiltelefon und Tablet.
Mit vielen Funktionen, die auf der Website nicht verfügbar sind, wie Offline-Unterstützung und eine persönliche Flughafenliste.

Wir und Dritte verfolgen dein Internetverhalten auf unserer Website mit Cookies. Wenn du fortfährst, gehen wir davon aus, dass du mit unserer Cookie-Richtlinie einverstanden bist. Mehr erfahren